Time;durP1;ratioP1;P1;durP2;ratioP2;P2;SDS_P1;SDS_P2;PMS_P1;PMS_P2;Temp;Humidity;BMP_temperature;BMP_pressure;BME280_temperature;BME280_humidity;BME280_pressure;Samples;Min_cycle;Max_cycle;Signal;HPM_P1;HPM_P2
2021/11/05 00:03:00;;;;;;;4.88;3.60;;;;;;;;;;6246564;28;20049;-83
2021/11/05 00:06:01;;;;;;;3.78;3.05;;;6.00;99.90;;;;;;6268086;28;20025;-89
2021/11/05 00:09:01;;;;;;;4.10;3.50;;;5.80;99.90;;;;;;6243581;28;20044;-89
2021/11/05 00:12:02;;;;;;;3.72;3.30;;;6.10;99.90;;;;;;6236655;28;20032;-90
2021/11/05 00:15:03;;;;;;;3.33;3.03;;;6.00;99.90;;;;;;6245984;28;20406;-89
2021/11/05 00:18:04;;;;;;;4.43;2.92;;;6.20;99.90;;;;;;6273180;28;20080;-89
2021/11/05 00:21:05;;;;;;;5.50;3.63;;;6.20;99.90;;;;;;6223291;28;20029;-89
2021/11/05 00:24:05;;;;;;;3.63;2.80;;;6.20;99.90;;;;;;6240747;28;20128;-89
2021/11/05 00:27:06;;;;;;;3.35;2.90;;;;;;;;;;6234756;28;20037;-88
2021/11/05 00:30:08;;;;;;;2.70;2.40;;;6.20;99.90;;;;;;6253123;28;20063;-88
2021/11/05 00:33:09;;;;;;;3.33;2.60;;;;;;;;;;6239320;28;20037;-88
2021/11/05 00:36:14;;;;;;;4.15;2.35;;;6.20;99.90;;;;;;6253835;28;20390;-89
2021/11/05 00:39:15;;;;;;;2.50;2.30;;;6.80;99.90;;;;;;6221340;28;20037;-89
2021/11/05 00:42:15;;;;;;;3.03;2.30;;;6.00;99.90;;;;;;6241225;28;20038;-88
2021/11/05 00:45:17;;;;;;;3.00;2.80;;;;;;;;;;6224168;28;20518;-89
2021/11/05 00:48:17;;;;;;;3.42;3.00;;;6.50;99.90;;;;;;6256316;28;20017;-89
2021/11/05 00:51:18;;;;;;;2.95;2.60;;;;;;;;;;6260520;28;20091;-89
2021/11/05 00:54:19;;;;;;;2.42;2.00;;;6.00;99.90;;;;;;6252162;28;20025;-88
2021/11/05 00:57:20;;;;;;;3.03;2.10;;;6.30;99.90;;;;;;6220077;28;20032;-89
2021/11/05 01:00:21;;;;;;;2.38;2.17;;;;;;;;;;6220488;28;20033;-89
2021/11/05 01:03:22;;;;;;;2.38;2.17;;;;;;;;;;6251867;28;20037;-89
2021/11/05 01:06:23;;;;;;;2.53;2.20;;;;;;;;;;6259048;28;20087;-88
2021/11/05 01:09:24;;;;;;;2.28;2.10;;;;;;;;;;6254972;28;20052;-88
2021/11/05 01:12:25;;;;;;;2.30;2.10;;;;;;;;;;6254687;28;20059;-90
2021/11/05 01:15:26;;;;;;;2.50;2.28;;;;;;;;;;6253682;28;20041;-90
2021/11/05 01:18:27;;;;;;;1.88;1.77;;;;;;;;;;6258037;28;20470;-89
2021/11/05 01:21:28;;;;;;;2.20;2.00;;;;;;;;;;6256921;28;20029;-89
2021/11/05 01:24:29;;;;;;;2.17;1.95;;;;;;;;;;6239866;28;20037;-89
2021/11/05 01:27:30;;;;;;;2.55;1.95;;;;;;;;;;6253175;28;20061;-89
2021/11/05 01:30:30;;;;;;;2.58;2.38;;;6.40;99.90;;;;;;6250469;28;20099;-89
2021/11/05 01:33:31;;;;;;;2.58;2.38;;;6.20;99.90;;;;;;6223779;28;20079;-89
2021/11/05 01:36:32;;;;;;;4.82;2.47;;;;;;;;;;6219941;28;20116;-90
2021/11/05 01:39:33;;;;;;;3.63;2.67;;;6.30;99.90;;;;;;6254322;28;20029;-88
2021/11/05 01:42:34;;;;;;;2.00;1.90;;;6.10;99.90;;;;;;6222876;28;20372;-89
2021/11/05 01:45:35;;;;;;;2.28;2.08;;;6.30;99.90;;;;;;6226579;28;20057;-88
2021/11/05 01:48:37;;;;;;;2.00;1.90;;;;;;;;;;6220587;28;20048;-89
2021/11/05 01:51:38;;;;;;;2.97;2.40;;;6.00;99.90;;;;;;6254562;28;20033;-89
2021/11/05 01:54:39;;;;;;;3.05;2.75;;;6.30;99.90;;;;;;6236934;28;20044;-88
2021/11/05 01:57:41;;;;;;;4.82;2.97;;;6.20;99.90;;;;;;6234565;28;20033;-88
2021/11/05 02:00:42;;;;;;;3.53;2.63;;;;;;;;;;6232681;28;20033;-90
2021/11/05 02:03:43;;;;;;;3.38;2.80;;;;;;;;;;6255138;28;20519;-89
2021/11/05 02:06:45;;;;;;;3.13;2.83;;;6.30;99.90;;;;;;6252047;28;20124;-88
2021/11/05 02:09:46;;;;;;;3.20;2.63;;;;;;;;;;6217975;28;20040;-89
2021/11/05 02:12:47;;;;;;;2.95;2.65;;;5.90;99.90;;;;;;6257601;28;20029;-88
2021/11/05 02:15:50;;;;;;;3.63;2.85;;;6.00;99.90;;;;;;6222206;28;20520;-89
2021/11/05 02:18:51;;;;;;;3.33;2.80;;;6.10;99.90;;;;;;6233769;28;20029;-88
2021/11/05 02:21:53;;;;;;;3.90;2.83;;;;;;;;;;6237264;28;20040;-88
2021/11/05 02:24:54;;;;;;;4.80;2.80;;;6.00;99.90;;;;;;6247730;28;20478;-88
2021/11/05 02:27:55;;;;;;;2.67;2.40;;;6.80;99.90;;;;;;6229818;28;20434;-87
2021/11/05 02:30:56;;;;;;;2.80;2.50;;;;;;;;;;6220720;28;20082;-90
2021/11/05 02:33:57;;;;;;;2.70;2.38;;;5.80;99.90;;;;;;6255020;28;20037;-89
2021/11/05 02:36:58;;;;;;;2.47;2.28;;;;;;;;;;6236791;28;20037;-89
2021/11/05 02:39:59;;;;;;;2.63;2.30;;;5.90;99.90;;;;;;6253692;28;20031;-89
2021/11/05 02:43:01;;;;;;;6.22;2.70;;;;;;;;;;6227551;28;20369;-89
2021/11/05 02:46:02;;;;;;;2.80;2.47;;;5.90;99.90;;;;;;6245696;28;20504;-89
2021/11/05 02:49:04;;;;;;;2.28;2.08;;;5.90;99.90;;;;;;6237667;28;20043;-89
2021/11/05 02:52:05;;;;;;;2.22;2.08;;;;;;;;;;6250080;28;20032;-89
2021/11/05 02:55:06;;;;;;;2.45;2.25;;;6.00;99.90;;;;;;6258668;28;20074;-89
2021/11/05 02:58:07;;;;;;;2.50;2.30;;;6.00;99.90;;;;;;6231042;28;20033;-89
2021/11/05 03:01:08;;;;;;;2.90;2.60;;;;;;;;;;6238394;28;20044;-90
2021/11/05 03:04:09;;;;;;;2.95;2.65;;;5.90;99.90;;;;;;6252099;28;20029;-89
2021/11/05 03:07:10;;;;;;;3.70;2.67;;;5.90;99.90;;;;;;6254253;28;20033;-89
2021/11/05 03:10:12;;;;;;;4.63;2.80;;;5.90;99.90;;;;;;6233986;28;20031;-88
2021/11/05 03:13:12;;;;;;;3.08;2.70;;;7.60;99.90;;;;;;6261168;28;20060;-89
2021/11/05 03:16:13;;;;;;;7.88;2.50;;;;;;;;;;6216175;28;20475;-90
2021/11/05 03:19:14;;;;;;;2.90;2.60;;;5.80;99.90;;;;;;6251062;28;20117;-89
2021/11/05 03:22:15;;;;;;;3.15;2.53;;;;;;;;;;6236501;28;20044;-89
2021/11/05 03:25:16;;;;;;;2.85;2.50;;;;;;;;;;6256493;28;20045;-89
2021/11/05 03:28:17;;;;;;;2.60;2.40;;;5.80;99.90;;;;;;6256780;28;20451;-88
2021/11/05 03:31:18;;;;;;;2.55;2.35;;;;;;;;;;6234121;28;20032;-88
2021/11/05 03:34:18;;;;;;;2.90;2.60;;;5.90;99.90;;;;;;6262391;28;20124;-87
2021/11/05 03:37:19;;;;;;;7.03;4.72;;;;;;;;;;6225909;28;20094;-84
2021/11/05 03:40:20;;;;;;;6.95;3.95;;;5.80;99.90;;;;;;6242931;28;20044;-87
2021/11/05 03:43:21;;;;;;;3.40;2.67;;;;;;;;;;6249521;28;20167;-86
2021/11/05 03:46:22;;;;;;;3.42;2.38;;;;;;;;;;6256394;28;20036;-85
2021/11/05 03:49:23;;;;;;;5.28;4.10;;;5.80;99.90;;;;;;6247686;28;20097;-86
2021/11/05 03:52:23;;;;;;;2.80;2.60;;;5.60;99.90;;;;;;6212415;28;20033;-84
2021/11/05 03:55:24;;;;;;;4.22;2.67;;;;;;;;;;6237041;28;20208;-84
2021/11/05 03:58:25;;;;;;;3.78;3.00;;;5.70;99.90;;;;;;6257582;28;20506;-84
2021/11/05 04:01:26;;;;;;;3.15;2.40;;;5.50;99.90;;;;;;6223783;28;20033;-84
2021/11/05 04:04:27;;;;;;;2.60;2.40;;;;;;;;;;6235546;28;20088;-85
2021/11/05 04:07:28;;;;;;;3.90;2.75;;;;;;;;;;6280171;28;20025;-85
2021/11/05 04:10:28;;;;;;;2.97;2.65;;;5.80;99.90;;;;;;6261309;28;20356;-84
2021/11/05 04:13:29;;;;;;;4.30;2.78;;;5.90;99.90;;;;;;6221455;28;20033;-87
2021/11/05 04:16:30;;;;;;;3.15;2.70;;;;;;;;;;6251851;28;20479;-85
2021/11/05 04:19:31;;;;;;;2.90;2.67;;;5.50;99.90;;;;;;6256556;28;20075;-85
2021/11/05 04:22:32;;;;;;;3.78;2.80;;;;;;;;;;6237033;28;20032;-86
2021/11/05 04:25:35;;;;;;;2.83;2.63;;;5.50;99.90;;;;;;6249854;28;20041;-87
2021/11/05 04:28:36;;;;;;;2.78;2.53;;;;;;;;;;6234506;28;20025;-85
2021/11/05 04:31:38;;;;;;;3.67;3.38;;;;;;;;;;6249514;28;20499;-84
2021/11/05 04:34:38;;;;;;;3.42;3.13;;;5.70;99.90;;;;;;6255642;28;20022;-84
2021/11/05 04:37:39;;;;;;;3.30;3.00;;;;;;;;;;6222313;28;20103;-86
2021/11/05 04:40:40;;;;;;;3.13;2.83;;;5.80;99.90;;;;;;6270391;28;20026;-85
2021/11/05 04:43:41;;;;;;;3.47;2.90;;;;;;;;;;6225281;28;20419;-84
2021/11/05 04:46:42;;;;;;;2.90;2.60;;;;;;;;;;6277383;28;20032;-85
2021/11/05 04:49:43;;;;;;;3.90;2.80;;;;;;;;;;6253245;28;20481;-85
2021/11/05 04:52:47;;;;;;;2.80;2.60;;;;;;;;;;6256020;28;20029;-87
2021/11/05 04:55:48;;;;;;;3.03;2.72;;;;;;;;;;6245577;28;20459;-87
2021/11/05 04:58:50;;;;;;;3.97;2.90;;;;;;;;;;6231881;28;20172;-87
2021/11/05 05:01:51;;;;;;;2.65;2.45;;;;;;;;;;6251880;28;20040;-85
2021/11/05 05:04:51;;;;;;;3.05;2.72;;;5.80;99.90;;;;;;6253068;28;20043;-85
2021/11/05 05:07:52;;;;;;;3.20;2.88;;;;;;;;;;6239726;28;20072;-86
2021/11/05 05:10:53;;;;;;;3.47;3.17;;;5.50;99.90;;;;;;6262563;28;20033;-87
2021/11/05 05:13:54;;;;;;;2.47;2.28;;;;;;;;;;6245270;28;20108;-86
2021/11/05 05:16:55;;;;;;;4.13;3.53;;;;;;;;;;6268161;28;20029;-83
2021/11/05 05:19:56;;;;;;;2.92;2.63;;;;;;;;;;6268669;28;20108;-85
2021/11/05 05:22:57;;;;;;;2.92;2.63;;;;;;;;;;6262649;28;20032;-86
2021/11/05 05:25:57;;;;;;;5.30;2.70;;;5.80;99.90;;;;;;6261799;28;20386;-84
2021/11/05 05:28:58;;;;;;;3.03;2.72;;;;;;;;;;6224151;28;20032;-84
2021/11/05 05:31:59;;;;;;;3.45;2.88;;;;;;;;;;6242095;28;20029;-84
2021/11/05 05:35:00;;;;;;;3.47;3.00;;;5.80;99.90;;;;;;6260684;28;20490;-84
2021/11/05 05:38:01;;;;;;;3.72;3.17;;;5.80;99.90;;;;;;6246240;28;20037;-84
2021/11/05 05:41:02;;;;;;;3.30;3.00;;;;;;;;;;6223514;28;20391;-84
2021/11/05 05:44:03;;;;;;;9.75;8.73;;;5.90;99.90;;;;;;6246752;28;20140;-85
2021/11/05 05:47:04;;;;;;;5.63;4.43;;;6.00;99.90;;;;;;6249854;28;20025;-85
2021/11/05 05:50:10;;;;;;;3.95;3.55;;;5.90;99.90;;;;;;6216553;28;20092;-84
2021/11/05 05:53:10;;;;;;;6.35;4.93;;;5.60;99.90;;;;;;6235352;28;20037;-87
2021/11/05 05:56:11;;;;;;;6.03;3.35;;;5.90;99.90;;;;;;6227411;28;20096;-84
2021/11/05 05:59:12;;;;;;;4.18;3.40;;;;;;;;;;6235113;28;20116;-87
2021/11/05 06:02:12;;;;;;;17.35;7.30;;;5.70;99.90;;;;;;6262154;28;20025;-84
2021/11/05 06:05:13;;;;;;;8.90;4.85;;;6.00;99.90;;;;;;6225642;28;20115;-85
2021/11/05 06:08:14;;;;;;;4.55;3.15;;;;;;;;;;6232267;28;20036;-84
2021/11/05 06:11:14;;;;;;;4.05;3.28;;;5.80;99.90;;;;;;6253727;28;20040;-84
2021/11/05 06:14:16;;;;;;;4.15;3.22;;;;;;;;;;6245911;28;20053;-85
2021/11/05 06:17:16;;;;;;;3.15;2.85;;;5.90;99.90;;;;;;6247055;28;20040;-86
2021/11/05 06:20:19;;;;;;;3.60;2.92;;;;;;;;;;6233611;28;20523;-89
2021/11/05 06:23:20;;;;;;;6.00;3.45;;;;;;;;;;6255761;28;20754;-88
2021/11/05 06:26:21;;;;;;;3.20;2.90;;;5.80;99.90;;;;;;6258028;28;20029;-86
2021/11/05 06:29:22;;;;;;;3.95;2.80;;;;;;;;;;6221875;28;20025;-85
2021/11/05 06:32:22;;;;;;;3.88;3.25;;;5.90;99.90;;;;;;6242274;28;20025;-83
2021/11/05 06:35:24;;;;;;;4.10;3.70;;;;;;;;;;6241044;28;20484;-84
2021/11/05 06:38:24;;;;;;;4.38;3.25;;;5.80;99.90;;;;;;6242911;28;20510;-84
2021/11/05 06:41:26;;;;;;;5.55;3.88;;;;;;;;;;6241247;28;20017;-83
2021/11/05 06:44:26;;;;;;;5.28;3.53;;;6.00;99.90;;;;;;6241559;28;20050;-84
2021/11/05 06:47:27;;;;;;;4.35;3.50;;;6.10;99.90;;;;;;6225168;28;20506;-83
2021/11/05 06:50:28;;;;;;;5.53;2.90;;;;;;;;;;6228769;28;20120;-84
2021/11/05 06:53:29;;;;;;;3.65;3.08;;;6.00;99.90;;;;;;6240319;28;20037;-82
2021/11/05 06:56:30;;;;;;;3.67;3.22;;;;;;;;;;6242306;28;20091;-84
2021/11/05 06:59:30;;;;;;;4.55;3.58;;;6.20;99.90;;;;;;6244982;28;20474;-85
2021/11/05 07:02:32;;;;;;;5.07;3.83;;;;;;;;;;6253571;28;20039;-86
2021/11/05 07:05:34;;;;;;;5.47;3.90;;;6.10;99.90;;;;;;6239584;28;20179;-88
2021/11/05 07:08:35;;;;;;;4.88;4.03;;;;;;;;;;6232364;28;20055;-88
2021/11/05 07:11:36;;;;;;;4.47;3.90;;;6.20;99.90;;;;;;6243340;28;20029;-87
2021/11/05 07:14:37;;;;;;;4.72;3.90;;;;;;;;;;6248025;28;20034;-85
2021/11/05 07:17:38;;;;;;;4.22;3.83;;;6.30;99.90;;;;;;6248965;28;20033;-86
2021/11/05 07:20:38;;;;;;;4.38;3.97;;;6.40;99.90;;;;;;6237865;28;20057;-82
2021/11/05 07:23:39;;;;;;;6.63;4.40;;;6.70;99.90;;;;;;6243761;28;20095;-81
2021/11/05 07:26:45;;;;;;;4.57;3.97;;;;;;;;;;6259236;28;20039;-83
2021/11/05 07:29:46;;;;;;;4.40;4.00;;;6.80;99.90;;;;;;6239247;28;20037;-84
2021/11/05 07:32:48;;;;;;;5.80;4.00;;;;;;;;;;6223687;28;20041;-84
2021/11/05 07:35:49;;;;;;;6.20;4.45;;;6.80;99.90;;;;;;6264551;28;20021;-88
2021/11/05 07:38:50;;;;;;;6.70;4.03;;;;;;;;;;6224293;28;20460;-84
2021/11/05 07:41:50;;;;;;;5.45;4.10;;;6.60;99.90;;;;;;6249108;28;20025;-83
2021/11/05 07:44:51;;;;;;;4.10;3.70;;;7.10;99.90;;;;;;6260941;28;20138;-85
2021/11/05 07:47:55;;;;;;;3.60;3.30;;;7.00;99.90;;;;;;6232225;28;20025;-84
2021/11/05 07:50:55;;;;;;;4.05;3.65;;;6.90;99.90;;;;;;6224240;28;20029;-85
2021/11/05 07:53:56;;;;;;;4.32;3.80;;;7.30;99.90;;;;;;6248093;28;20055;-84
2021/11/05 07:56:57;;;;;;;4.00;3.60;;;7.00;99.90;;;;;;6229216;28;20040;-83
2021/11/05 07:59:58;;;;;;;5.63;3.40;;;;;;;;;;6229152;28;20498;-88
2021/11/05 08:02:59;;;;;;;3.87;3.50;;;;;;;;;;6250564;28;20021;-84
2021/11/05 08:06:00;;;;;;;4.40;3.70;;;7.30;99.90;;;;;;6267223;28;20391;-84
2021/11/05 08:09:01;;;;;;;7.05;3.28;;;;;;;;;;6227223;28;20129;-88
2021/11/05 08:12:02;;;;;;;3.05;2.75;;;7.40;99.90;;;;;;6247961;28;20017;-85
2021/11/05 08:15:03;;;;;;;11.50;9.23;;;7.40;99.90;;;;;;6243713;28;20088;-86
2021/11/05 08:18:04;;;;;;;4.88;3.92;;;;;;;;;;6225011;28;20025;-82
2021/11/05 08:21:05;;;;;;;3.25;2.78;;;7.40;99.90;;;;;;6245539;28;20025;-80
2021/11/05 08:24:06;;;;;;;3.67;2.42;;;7.10;99.90;;;;;;6265137;28;20045;-81
2021/11/05 08:27:07;;;;;;;3.80;3.42;;;7.20;99.90;;;;;;6265310;28;20095;-81
2021/11/05 08:30:11;;;;;;;2.72;2.50;;;7.10;99.90;;;;;;6264147;28;20030;-82
2021/11/05 08:33:12;;;;;;;4.40;3.38;;;7.10;99.90;;;;;;6248643;28;20029;-82
2021/11/05 08:36:14;;;;;;;5.30;3.38;;;7.20;99.90;;;;;;6247575;28;20030;-82
2021/11/05 08:39:14;;;;;;;2.63;2.17;;;7.20;99.90;;;;;;6247437;28;20033;-84
2021/11/05 08:42:15;;;;;;;2.92;2.22;;;;;;;;;;6231637;28;20276;-85
2021/11/05 08:45:16;;;;;;;2.25;2.05;;;7.40;99.90;;;;;;6264607;28;20057;-84
2021/11/05 08:48:18;;;;;;;4.65;2.78;;;7.30;99.90;;;;;;6230990;28;20028;-83
2021/11/05 08:51:19;;;;;;;2.55;2.35;;;;;;;;;;6248449;28;20029;-85
2021/11/05 08:54:19;;;;;;;3.00;2.17;;;7.60;99.90;;;;;;6263839;28;20534;-83
2021/11/05 08:57:20;;;;;;;7.35;2.60;;;7.50;99.90;;;;;;6248055;28;20033;-85
2021/11/05 09:00:23;;;;;;;2.40;2.20;;;7.80;99.90;;;;;;6245351;28;20033;-82
2021/11/05 09:03:23;;;;;;;;;;;7.80;99.90;;;;;;6248071;28;20456;-79
2021/11/05 09:06:24;;;;;;;5.53;2.90;;;8.30;99.90;;;;;;6248631;28;19916;-81
2021/11/05 09:09:25;;;;;;;2.30;2.10;;;8.10;99.90;;;;;;6245768;28;20194;-84
2021/11/05 09:12:26;;;;;;;3.70;2.95;;;8.20;99.90;;;;;;6264366;28;20522;-85
2021/11/05 09:15:27;;;;;;;5.38;3.83;;;8.10;99.90;;;;;;6246308;28;20025;-84
2021/11/05 09:18:28;;;;;;;4.55;3.65;;;8.20;99.90;;;;;;6232914;28;20033;-85
2021/11/05 09:21:31;;;;;;;4.18;3.78;;;8.30;99.90;;;;;;6229606;28;20026;-84
2021/11/05 09:24:33;;;;;;;2.88;2.65;;;8.10;99.90;;;;;;6226359;28;20064;-82
2021/11/05 09:27:34;;;;;;;5.95;2.58;;;8.20;99.90;;;;;;6243213;28;20040;-80
2021/11/05 09:30:35;;;;;;;2.28;2.08;;;8.30;99.90;;;;;;6247061;28;20037;-88
2021/11/05 09:33:36;;;;;;;2.33;2.00;;;8.30;99.90;;;;;;6249256;28;20044;-83
2021/11/05 09:36:36;;;;;;;2.13;1.92;;;8.40;99.90;;;;;;6226490;28;20021;-84
2021/11/05 09:39:37;;;;;;;3.92;1.80;;;8.40;99.90;;;;;;6225537;28;20026;-83
2021/11/05 09:42:39;;;;;;;2.80;2.40;;;8.30;99.90;;;;;;6241488;28;20053;-84
2021/11/05 09:45:40;;;;;;;3.10;2.10;;;8.30;99.90;;;;;;6244730;28;20057;-83
2021/11/05 09:48:42;;;;;;;2.75;2.38;;;8.40;99.90;;;;;;6272300;28;20088;-83
2021/11/05 09:51:43;;;;;;;42.28;22.40;;;8.60;99.90;;;;;;6251285;28;20021;-84
2021/11/05 09:54:43;;;;;;;15.68;9.10;;;8.70;99.90;;;;;;6253793;28;20063;-84
2021/11/05 09:57:44;;;;;;;43.08;30.23;;;8.70;99.90;;;;;;6244206;28;20061;-83
2021/11/05 10:00:45;;;;;;;33.20;17.50;;;;;;;;;;6228176;28;20053;-83
2021/11/05 10:03:46;;;;;;;41.10;19.30;;;8.50;99.90;;;;;;6243253;28;20060;-83
2021/11/05 10:07:03;;;;;;;5.57;3.83;;;8.90;99.90;;;;;;6227164;28;20030;-83
2021/11/05 10:10:04;;;;;;;17.08;8.57;;;8.70;99.90;;;;;;6239125;28;20514;-83
2021/11/05 10:13:09;;;;;;;24.38;10.27;;;8.70;99.90;;;;;;6242483;28;20120;-81
2021/11/05 10:16:13;;;;;;;60.97;19.45;;;9.00;99.90;;;;;;6227541;28;20021;-83
2021/11/05 10:19:15;;;;;;;26.83;9.10;;;9.20;99.90;;;;;;6258909;28;20112;-85
2021/11/05 10:22:35;;;;;;;13.30;4.73;;;9.60;99.90;;;;;;6230356;28;20087;-84
2021/11/05 10:25:44;;;;;;;7.05;2.97;;;9.50;99.90;;;;;;6255229;28;20049;-89
2021/11/05 10:28:45;;;;;;;7.65;4.13;;;9.70;99.90;;;;;;6238852;28;20033;-83
2021/11/05 10:31:45;;;;;;;3.60;2.80;;;9.90;99.90;;;;;;6243674;28;20029;-83
2021/11/05 10:34:51;;;;;;;3.05;2.17;;;9.70;99.90;;;;;;6241005;28;20129;-83
2021/11/05 10:37:56;;;;;;;2.35;1.83;;;9.60;99.90;;;;;;6254852;28;20422;-81
2021/11/05 10:40:58;;;;;;;2.55;2.13;;;9.60;99.90;;;;;;6237078;28;20060;-82
2021/11/05 10:44:00;;;;;;;5.72;4.32;;;9.50;99.90;;;;;;6234060;28;20075;-82
2021/11/05 10:47:08;;;;;;;5.88;3.00;;;9.60;99.90;;;;;;6255881;28;20029;-82
2021/11/05 10:50:11;;;;;;;5.57;5.07;;;9.20;99.90;;;;;;6239049;28;20029;-81
2021/11/05 10:53:13;;;;;;;4.78;4.38;;;9.20;99.90;;;;;;6258881;28;20045;-82
2021/11/05 10:56:16;;;;;;;3.03;2.70;;;9.20;99.90;;;;;;6224597;28;20079;-83
2021/11/05 10:59:16;;;;;;;;;;;9.10;99.90;;;;;;6240442;28;20395;-82
2021/11/05 11:02:24;;;;;;;2.10;1.90;;;9.20;99.90;;;;;;6252160;28;19913;-82
2021/11/05 11:05:44;;;;;;;1.80;1.70;;;9.00;99.90;;;;;;6259528;28;20493;-81
2021/11/05 11:08:46;;;;;;;2.50;2.30;;;8.80;99.90;;;;;;6222377;28;20026;-84
2021/11/05 11:11:51;;;;;;;1.67;1.58;;;9.00;99.90;;;;;;6241391;28;20705;-82
2021/11/05 11:14:52;;;;;;;1.92;1.73;;;8.90;99.90;;;;;;6261944;28;20081;-85
2021/11/05 11:17:53;;;;;;;2.53;2.33;;;9.10;99.90;;;;;;6274428;28;20525;-88
2021/11/05 11:20:54;;;;;;;2.50;2.30;;;;;;;;;;6212678;28;20091;-84
2021/11/05 11:23:56;;;;;;;2.67;1.77;;;;;;;;;;6269574;28;20045;-88
2021/11/05 11:26:57;;;;;;;3.35;2.38;;;;;;;;;;6271562;28;20056;-85
2021/11/05 11:29:57;;;;;;;2.88;1.98;;;9.50;99.90;;;;;;6274183;28;20017;-85
2021/11/05 11:32:58;;;;;;;10.05;8.60;;;10.60;99.90;;;;;;6255318;28;20399;-83
2021/11/05 11:35:59;;;;;;;3.85;2.70;;;;;;;;;;6231577;28;20120;-83
2021/11/05 11:39:00;;;;;;;2.13;1.67;;;11.40;99.90;;;;;;6244791;28;20105;-84
2021/11/05 11:42:06;;;;;;;4.90;4.03;;;11.30;99.90;;;;;;6237404;28;20411;-84
2021/11/05 11:45:10;;;;;;;1.73;1.63;;;11.50;99.90;;;;;;6266083;28;20160;-86
2021/11/05 11:48:11;;;;;;;1.92;1.83;;;11.30;99.90;;;;;;6214399;28;20026;-84
2021/11/05 11:51:18;;;;;;;1.90;1.80;;;11.20;99.90;;;;;;6252220;28;20467;-85
2021/11/05 11:54:20;;;;;;;2.22;1.98;;;10.70;99.90;;;;;;6266609;28;20132;-85
2021/11/05 11:57:26;;;;;;;1.58;1.48;;;10.70;99.90;;;;;;6251184;28;20032;-84
2021/11/05 12:00:27;;;;;;;1.90;1.80;;;10.10;99.90;;;;;;6224517;28;20072;-84
2021/11/05 12:03:28;;;;;;;2.00;1.90;;;;;;;;;;6245165;28;20034;-86
2021/11/05 12:06:51;;;;;;;2.10;1.83;;;9.70;99.90;;;;;;6265365;28;20515;-85
2021/11/05 12:09:52;;;;;;;2.00;1.88;;;;;;;;;;6257565;28;20658;-83
2021/11/05 12:12:52;;;;;;;2.22;2.03;;;9.80;99.90;;;;;;6267349;28;20025;-85
2021/11/05 12:19:13;;;;;;;2.20;2.00;;;10.70;99.90;;;;;;6256911;28;20043;-84
2021/11/05 12:22:15;;;;;;;1.85;1.75;;;10.80;99.90;;;;;;6229753;28;20033;-83
2021/11/05 12:25:17;;;;;;;2.10;1.90;;;11.20;99.90;;;;;;6226859;28;20073;-86
2021/11/05 12:28:29;;;;;;;2.08;1.92;;;11.50;99.90;;;;;;6250391;28;20025;-87
2021/11/05 12:31:30;;;;;;;2.35;2.15;;;11.60;99.90;;;;;;6233571;28;20364;-83
2021/11/05 12:34:37;;;;;;;1.92;1.83;;;11.70;99.90;;;;;;6240244;28;20088;-84
2021/11/05 12:37:45;;;;;;;3.83;2.30;;;11.90;99.90;;;;;;6241340;28;20033;-84
2021/11/05 12:40:55;;;;;;;3.50;2.40;;;11.40;99.90;;;;;;6243606;28;20403;-83
2021/11/05 12:44:12;;;;;;;2.88;2.50;;;11.70;99.90;;;;;;6243781;28;20134;-86
2021/11/05 12:47:12;;;;;;;2.28;2.08;;;11.50;99.90;;;;;;6236303;28;20108;-84
2021/11/05 12:50:27;;;;;;;2.45;2.28;;;11.20;99.90;;;;;;6210164;28;20474;-87
2021/11/05 12:53:27;;;;;;;3.90;2.58;;;11.00;99.90;;;;;;6213665;28;20029;-85
2021/11/05 12:56:29;;;;;;;2.70;2.30;;;10.80;99.90;;;;;;6236859;28;20036;-87
2021/11/05 12:59:31;;;;;;;3.00;2.20;;;10.70;99.90;;;;;;6214003;28;20471;-84
2021/11/05 13:02:32;;;;;;;2.88;2.55;;;;;;;;;;6251644;28;20061;-83
2021/11/05 13:05:32;;;;;;;3.10;2.80;;;10.30;99.90;;;;;;6264065;28;20049;-82
2021/11/05 13:08:37;;;;;;;2.72;2.53;;;10.20;99.90;;;;;;6231956;28;20060;-85
2021/11/05 13:11:53;;;;;;;10.55;9.65;;;10.10;99.90;;;;;;6232980;28;20036;-84
2021/11/05 13:15:03;;;;;;;2.63;2.40;;;9.90;99.90;;;;;;6243727;28;20021;-83
2021/11/05 13:18:04;;;;;;;15.60;7.80;;;;;;;;;;6223736;28;20116;-82
2021/11/05 13:21:05;;;;;;;5.43;3.30;;;10.00;99.90;;;;;;6250205;28;20051;-84
2021/11/05 13:24:06;;;;;;;2.50;2.30;;;;;;;;;;6233686;28;20087;-85
2021/11/05 13:27:07;;;;;;;2.92;2.40;;;;;;;;;;6265049;28;20022;-84
2021/11/05 13:30:08;;;;;;;1.48;1.38;;;10.60;99.90;;;;;;6264579;28;20017;-85
2021/11/05 13:33:09;;;;;;;2.25;2.05;;;10.40;99.90;;;;;;6241550;28;20036;-88
2021/11/05 13:36:10;;;;;;;4.10;3.70;;;10.10;99.90;;;;;;6224317;28;20034;-80
2021/11/05 13:39:14;;;;;;;1.98;1.80;;;10.00;99.90;;;;;;6257060;28;20448;-85
2021/11/05 13:42:17;;;;;;;2.08;1.92;;;10.00;99.90;;;;;;6262724;28;20427;-87
2021/11/05 13:45:18;;;;;;;2.95;1.70;;;;;;;;;;6218676;28;20056;-87
2021/11/05 13:48:56;;;;;;;6.53;4.38;;;9.90;99.90;;;;;;6264877;28;20025;-86
2021/11/05 13:51:57;;;;;;;8.43;5.70;;;9.90;99.90;;;;;;6241893;28;20041;-87
2021/11/05 13:54:58;;;;;;;6.65;4.93;;;;;;;;;;6232752;28;20032;-88
2021/11/05 13:57:59;;;;;;;3.55;2.67;;;9.80;99.90;;;;;;6257578;28;20027;-88
2021/11/05 14:01:00;;;;;;;6.22;3.47;;;;;;;;;;6223333;28;20028;-87
2021/11/05 14:04:03;;;;;;;2.35;2.15;;;9.90;99.90;;;;;;6265092;28;20115;-82
2021/11/05 14:07:09;;;;;;;2.38;2.17;;;9.50;99.90;;;;;;6246791;28;20030;-86
2021/11/05 14:10:11;;;;;;;2.53;2.05;;;9.50;99.90;;;;;;6248482;28;20034;-87
2021/11/05 14:13:12;;;;;;;2.83;2.08;;;;;;;;;;6231770;28;20534;-87
2021/11/05 14:16:13;;;;;;;2.42;2.17;;;;;;;;;;6250476;28;20028;-84
2021/11/05 14:19:15;;;;;;;2.22;2.00;;;9.50;99.90;;;;;;6234063;28;20116;-84
2021/11/05 14:22:16;;;;;;;2.35;2.15;;;;;;;;;;6240057;28;20049;-84
2021/11/05 14:25:19;;;;;;;2.65;2.30;;;9.40;99.90;;;;;;6252943;28;20045;-85
2021/11/05 14:28:20;;;;;;;4.13;2.60;;;9.30;99.90;;;;;;6222124;28;20035;-83
2021/11/05 14:31:20;;;;;;;2.75;2.20;;;9.30;99.90;;;;;;6223083;28;20033;-86
2021/11/05 14:34:22;;;;;;;2.83;2.50;;;9.40;99.90;;;;;;6237806;28;20463;-83
2021/11/05 14:37:24;;;;;;;3.75;2.65;;;9.30;99.90;;;;;;6250645;28;20017;-91
2021/11/05 14:40:32;;;;;;;2.47;2.20;;;9.10;99.90;;;;;;6222027;28;20037;-88
2021/11/05 14:43:32;;;;;;;3.55;2.40;;;9.20;99.90;;;;;;6223667;28;20141;-90
2021/11/05 14:46:47;;;;;;;3.17;2.63;;;9.00;99.90;;;;;;6222140;28;20475;-89
2021/11/05 14:49:48;;;;;;;3.10;2.78;;;9.20;99.90;;;;;;6220959;28;20317;-89
2021/11/05 14:52:49;;;;;;;3.47;3.17;;;;;;;;;;6239621;28;20121;-85
2021/11/05 14:55:50;;;;;;;4.40;3.80;;;;;;;;;;6261163;28;20050;-85
2021/11/05 14:58:50;;;;;;;5.15;3.45;;;9.60;99.90;;;;;;6255299;28;20414;-85
2021/11/05 15:01:51;;;;;;;2.97;2.60;;;9.50;99.90;;;;;;6219742;28;20038;-86
2021/11/05 15:04:52;;;;;;;3.38;2.83;;;;;;;;;;6253785;28;20373;-89
2021/11/05 15:07:53;;;;;;;4.20;2.83;;;;;;;;;;6262429;28;20025;-89
2021/11/05 15:10:54;;;;;;;9.00;5.40;;;;;;;;;;6272593;28;20026;-89
2021/11/05 15:13:55;;;;;;;15.25;9.13;;;9.40;99.90;;;;;;6260810;28;20029;-88
2021/11/05 15:16:56;;;;;;;8.55;4.13;;;8.90;99.90;;;;;;6230800;28;20636;-88
2021/11/05 15:19:57;;;;;;;11.90;7.65;;;;;;;;;;6222496;28;20064;-92
2021/11/05 15:22:58;;;;;;;6.90;5.38;;;;;;;;;;6251695;28;20029;-86
2021/11/05 15:26:00;;;;;;;13.93;7.25;;;10.60;99.90;;;;;;6258551;28;20037;-85
2021/11/05 15:29:02;;;;;;;6.93;5.30;;;;;;;;;;6229032;28;20395;-82
2021/11/05 15:32:03;;;;;;;7.95;5.28;;;;;;;;;;6268552;28;20017;-90
2021/11/05 15:35:04;;;;;;;5.95;4.75;;;10.80;99.90;;;;;;6247110;28;20033;-87
2021/11/05 15:38:06;;;;;;;6.72;5.10;;;;;;;;;;6218993;28;20040;-86
2021/11/05 15:44:28;;;;;;;8.45;4.03;;;8.30;99.90;;;;;;6212533;28;20130;-89
2021/11/05 15:47:29;;;;;;;6.03;4.25;;;;;;;;;;6175667;28;20030;-87
2021/11/05 15:50:31;;;;;;;5.00;4.13;;;7.90;99.90;;;;;;6183357;28;20034;-87
2021/11/05 15:53:35;;;;;;;4.32;3.92;;;;;;;;;;6183458;28;20039;-87
2021/11/05 15:56:36;;;;;;;6.93;4.03;;;8.30;99.90;;;;;;6193598;28;20030;-86
2021/11/05 15:59:37;;;;;;;6.07;4.80;;;;;;;;;;6185692;28;20062;-87
2021/11/05 16:02:38;;;;;;;9.07;5.13;;;;;;;;;;6193115;28;20110;-88
2021/11/05 16:05:39;;;;;;;5.30;4.78;;;8.00;99.90;;;;;;6195791;28;20045;-87
2021/11/05 16:08:40;;;;;;;4.82;4.25;;;7.90;99.90;;;;;;6174088;28;20049;-86
2021/11/05 16:11:43;;;;;;;8.60;4.70;;;7.70;99.90;;;;;;6184561;28;20165;-87
2021/11/05 16:14:44;;;;;;;4.50;3.88;;;8.00;99.90;;;;;;6171172;28;20043;-87
2021/11/05 16:17:45;;;;;;;4.80;3.63;;;;;;;;;;6169607;28;20617;-88
2021/11/05 16:20:45;;;;;;;3.50;3.15;;;7.40;99.90;;;;;;6202037;28;20102;-85
2021/11/05 16:23:46;;;;;;;4.57;4.15;;;;;;;;;;6217824;28;20041;-86
2021/11/05 16:26:47;;;;;;;5.72;4.50;;;7.50;99.90;;;;;;6255870;28;20052;-84
2021/11/05 16:29:49;;;;;;;7.88;6.50;;;7.20;99.90;;;;;;6229045;28;20076;-85
2021/11/05 16:32:49;;;;;;;15.68;10.68;;;;;;;;;;6227793;28;20032;-84
2021/11/05 16:35:50;;;;;;;6.57;5.95;;;7.10;99.90;;;;;;6227922;28;20021;-84
2021/11/05 16:38:51;;;;;;;7.50;5.57;;;;;;;;;;6229774;28;20036;-82
2021/11/05 16:41:52;;;;;;;6.10;5.50;;;;;;;;;;6242144;28;20029;-82
2021/11/05 16:44:53;;;;;;;6.30;5.70;;;;;;;;;;6268574;28;20388;-86
2021/11/05 16:47:54;;;;;;;5.65;4.80;;;;;;;;;;6265233;28;20025;-87